Time;durP1;ratioP1;P1;durP2;ratioP2;P2;SDS_P1;SDS_P2;PMS_P1;PMS_P2;Temp;Humidity;BMP_temperature;BMP_pressure;BME280_temperature;BME280_humidity;BME280_pressure;Samples;Min_cycle;Max_cycle;Signal;HPM_P1;HPM_P2
2023/03/26 00:00:36;;;;;;;50.85;4.78;;;;;;;8.57;100.00;100400.22;4910332;29;20042;-76
2023/03/26 00:03:03;;;;;;;51.83;4.45;;;;;;;8.49;100.00;100394.50;4949417;29;20065;-76
2023/03/26 00:05:30;;;;;;;52.95;4.25;;;;;;;8.45;100.00;100396.59;4923150;29;20050;-76
2023/03/26 00:07:56;;;;;;;45.90;4.85;;;;;;;8.50;100.00;100401.72;4957413;29;20039;-76
2023/03/26 00:10:22;;;;;;;49.00;4.78;;;;;;;8.52;100.00;100397.00;4954871;29;20043;-76
2023/03/26 00:12:48;;;;;;;52.38;4.40;;;;;;;8.45;100.00;100404.78;4954220;29;20086;-76
2023/03/26 00:15:13;;;;;;;48.20;4.35;;;;;;;8.43;100.00;100395.00;4960243;29;20031;-76
2023/03/26 00:17:38;;;;;;;52.67;5.20;;;;;;;8.40;100.00;100392.47;4910546;29;20031;-76
2023/03/26 00:20:06;;;;;;;44.95;3.88;;;;;;;8.42;100.00;100399.53;4938567;29;20066;-76
2023/03/26 00:22:32;;;;;;;45.67;5.22;;;;;;;8.46;100.00;100398.34;4924755;28;20057;-76
2023/03/26 00:24:58;;;;;;;45.15;5.60;;;;;;;8.42;100.00;100393.22;4931211;29;20035;-76
2023/03/26 00:27:24;;;;;;;38.97;4.75;;;;;;;8.44;100.00;100392.16;4928612;29;20122;-76
2023/03/26 00:29:49;;;;;;;44.30;3.67;;;;;;;8.41;100.00;100395.09;4941736;29;20027;-77
2023/03/26 00:32:15;;;;;;;43.97;4.57;;;;;;;8.42;100.00;100387.75;4924377;29;20091;-77
2023/03/26 00:34:41;;;;;;;42.28;3.88;;;;;;;8.41;100.00;100380.56;4926975;29;20042;-77
2023/03/26 00:37:07;;;;;;;58.95;4.45;;;;;;;8.52;100.00;100380.63;4959759;29;20446;-77
2023/03/26 00:39:36;;;;;;;46.08;4.10;;;;;;;8.44;100.00;100380.34;4947422;28;20513;-76
2023/03/26 00:42:05;;;;;;;33.60;3.80;;;;;;;8.47;100.00;100377.41;4954657;29;20042;-77
2023/03/26 00:44:33;;;;;;;59.00;4.53;;;;;;;8.49;100.00;100375.41;4944277;29;20083;-76
2023/03/26 00:46:58;;;;;;;52.72;5.10;;;;;;;8.42;100.00;100374.97;4923821;29;20039;-76
2023/03/26 00:49:25;;;;;;;47.90;5.07;;;;;;;8.31;100.00;100358.59;4958443;29;20236;-76
2023/03/26 00:51:51;;;;;;;49.08;5.03;;;;;;;8.45;100.00;100371.19;4952800;29;20044;-76
2023/03/26 00:54:17;;;;;;;48.22;4.22;;;;;;;8.41;100.00;100365.09;4957522;29;20037;-76
2023/03/26 00:56:43;;;;;;;47.92;4.90;;;;;;;8.37;100.00;100374.47;4924293;29;20130;-76
2023/03/26 00:59:08;;;;;;;43.00;4.22;;;;;;;8.39;100.00;100366.19;4957399;28;20043;-76
2023/03/26 01:01:34;;;;;;;42.20;3.85;;;;;;;8.19;100.00;100367.72;4924774;29;20138;-77
2023/03/26 01:04:38;;;;;;;37.55;4.30;;;;;;;8.19;100.00;100363.13;4934740;29;20039;-76
2023/03/26 01:07:10;;;;;;;53.67;4.18;;;;;;;8.09;100.00;100353.94;4876149;29;20101;-76
2023/03/26 01:09:41;;;;;;;44.85;3.50;;;;;;;8.17;100.00;100354.22;4861206;29;20045;-77
2023/03/26 01:12:12;;;;;;;49.00;4.57;;;;;;;8.14;100.00;100357.16;4899229;28;20050;-78
2023/03/26 01:14:38;;;;;;;42.78;4.78;;;;;;;8.14;100.00;100350.84;4943483;29;20035;-76
2023/03/26 01:17:06;;;;;;;43.78;3.97;;;;;;;8.08;100.00;100353.06;4939582;29;20043;-77
2023/03/26 01:19:43;;;;;;;42.95;3.83;;;;;;;8.06;100.00;100335.94;4956104;29;20098;-77
2023/03/26 01:22:15;;;;;;;40.53;4.60;;;;;;;8.13;100.00;100332.75;4949604;29;20041;-76
2023/03/26 01:24:41;;;;;;;54.03;4.68;;;;;;;8.05;100.00;100327.88;4923980;29;20051;-77
2023/03/26 01:27:39;;;;;;;37.58;5.90;;;;;;;8.06;100.00;100329.63;4938444;29;20039;-77
2023/03/26 01:30:26;;;;;;;56.30;4.65;;;;;;;7.98;100.00;100321.16;4947946;29;20043;-76
2023/03/26 01:33:28;;;;;;;47.33;5.18;;;;;;;7.99;100.00;100315.59;4938721;29;20028;-78
2023/03/26 01:36:02;;;;;;;40.67;4.65;;;;;;;7.98;100.00;100313.00;4956622;29;20093;-76
2023/03/26 01:38:47;;;;;;;54.75;4.15;;;;;;;7.93;100.00;100304.31;4937707;29;20035;-77
2023/03/26 01:41:35;;;;;;;44.00;3.90;;;;;;;7.88;100.00;100304.66;4938263;29;20044;-76
2023/03/26 01:44:19;;;;;;;45.53;4.68;;;;;;;7.90;100.00;100300.84;4924965;29;20035;-76
2023/03/26 01:46:45;;;;;;;46.45;3.13;;;;;;;7.75;100.00;100293.81;4957641;29;20043;-76
2023/03/26 01:49:14;;;;;;;47.42;5.00;;;;;;;7.77;100.00;100296.44;4957321;29;20042;-77
2023/03/26 01:51:41;;;;;;;41.40;4.85;;;;;;;7.66;100.00;100297.28;4923238;29;20409;-76
2023/03/26 01:54:11;;;;;;;46.08;4.50;;;;;;;7.70;100.00;100294.16;4952302;29;20453;-77
2023/03/26 01:56:55;;;;;;;33.78;3.80;;;;;;;7.68;100.00;100295.28;4957656;29;20035;-76
2023/03/26 01:59:53;;;;;;;39.00;4.13;;;;;;;7.70;100.00;100298.75;4952768;29;20043;-76
2023/03/26 02:02:37;;;;;;;36.10;3.10;;;;;;;7.67;100.00;100299.88;4954154;29;20067;-76
2023/03/26 02:05:20;;;;;;;37.25;4.07;;;;;;;7.65;100.00;100295.53;4958159;29;20039;-77
2023/03/26 02:08:10;;;;;;;51.90;4.82;;;;;;;7.53;100.00;100281.84;4941859;29;20031;-76
2023/03/26 02:10:42;;;;;;;49.08;4.40;;;;;;;7.58;100.00;100281.50;4935104;29;20422;-76
2023/03/26 02:13:09;;;;;;;47.70;4.05;;;;;;;7.58;100.00;100278.78;4941865;29;20035;-76
2023/03/26 02:15:34;;;;;;;59.58;4.18;;;;;;;7.58;100.00;100280.63;4962187;29;20023;-76
2023/03/26 02:18:02;;;;;;;37.20;4.88;;;;;;;7.67;100.00;100279.91;4945861;28;20090;-76
2023/03/26 02:20:29;;;;;;;44.95;5.13;;;;;;;7.64;100.00;100275.59;4932631;29;20112;-76
2023/03/26 02:22:55;;;;;;;42.22;4.07;;;;;;;7.56;100.00;100261.69;4941542;28;20044;-77
2023/03/26 02:25:22;;;;;;;34.78;3.65;;;;;;;7.49;100.00;100260.38;4945502;29;20112;-76
2023/03/26 02:27:49;;;;;;;32.67;3.92;;;;;;;7.41;100.00;100250.09;4953705;29;20514;-76
2023/03/26 02:30:18;;;;;;;49.53;4.60;;;;;;;7.42;100.00;100243.66;4928693;29;20134;-76
2023/03/26 02:32:43;;;;;;;42.90;3.78;;;;;;;7.39;100.00;100234.84;4961458;29;20027;-75
2023/03/26 02:35:10;;;;;;;50.38;4.82;;;;;;;7.54;100.00;100240.00;4945182;29;20098;-77
2023/03/26 02:37:37;;;;;;;48.85;5.47;;;;;;;7.46;100.00;100237.00;4960484;29;20051;-77
2023/03/26 02:40:04;;;;;;;32.53;4.30;;;;;;;7.35;100.00;100231.50;4943677;29;20046;-77
2023/03/26 02:42:30;;;;;;;37.20;4.22;;;;;;;7.32;100.00;100227.13;4961775;29;20028;-76
2023/03/26 02:44:55;;;;;;;40.25;4.35;;;;;;;7.36;100.00;100234.09;4926612;29;20039;-77
2023/03/26 02:47:21;;;;;;;43.35;4.75;;;;;;;7.26;100.00;100222.16;4943431;29;20035;-76
2023/03/26 02:49:46;;;;;;;40.80;4.78;;;;;;;7.37;100.00;100226.78;4960912;29;20071;-77
2023/03/26 02:52:15;;;;;;;52.78;4.22;;;;;;;7.39;100.00;100223.97;4954285;29;20032;-76
2023/03/26 02:54:41;;;;;;;33.00;4.22;;;;;;;7.39;100.00;100216.66;4946686;29;20465;-76
2023/03/26 02:57:07;;;;;;;41.88;4.25;;;;;;;7.20;100.00;100192.69;4961057;29;20035;-76
2023/03/26 02:59:32;;;;;;;36.13;5.47;;;;;;;7.36;100.00;100214.16;4923810;29;20115;-78
2023/03/26 03:01:57;;;;;;;35.95;4.10;;;;;;;7.37;100.00;100202.28;4925054;29;20039;-76
2023/03/26 03:04:23;;;;;;;50.05;4.22;;;;;;;7.42;100.00;100199.22;4944632;29;20122;-77
2023/03/26 03:06:51;;;;;;;38.90;4.18;;;;;;;7.38;100.00;100190.41;4961756;29;20091;-77
2023/03/26 03:09:17;;;;;;;41.28;5.25;;;;;;;7.42;100.00;100200.06;4906290;29;20441;-77
2023/03/26 03:11:43;;;;;;;40.90;4.78;;;;;;;7.48;100.00;100186.00;4940740;29;20035;-76
2023/03/26 03:14:09;;;;;;;52.75;4.20;;;;;;;7.49;100.00;100190.47;4944509;29;20031;-76
2023/03/26 03:16:34;;;;;;;39.88;4.10;;;;;;;7.44;100.00;100183.63;4937624;29;20058;-78
2023/03/26 03:19:04;;;;;;;48.25;5.13;;;;;;;7.40;100.00;100183.00;4959347;29;20055;-76
2023/03/26 03:21:30;;;;;;;37.33;4.50;;;;;;;7.42;100.00;100175.56;4959891;29;20148;-77
2023/03/26 03:23:56;;;;;;;40.92;4.78;;;;;;;7.43;100.00;100170.97;4941175;28;20040;-77
2023/03/26 03:26:26;;;;;;;38.50;5.10;;;;;;;7.48;100.00;100171.50;4958241;29;20384;-77
2023/03/26 03:28:56;;;;;;;46.42;4.38;;;;;;;7.49;100.00;100170.50;4953474;29;20402;-77
2023/03/26 03:31:23;;;;;;;49.58;4.05;;;;;;;7.55;100.00;100157.28;4958981;29;20049;-76
2023/03/26 03:33:49;;;;;;;32.15;3.92;;;;;;;7.61;100.00;100158.66;4958957;29;20030;-76
2023/03/26 03:36:17;;;;;;;39.47;4.05;;;;;;;7.62;100.00;100160.38;4957343;29;20114;-77
2023/03/26 03:38:44;;;;;;;38.25;3.70;;;;;;;7.60;100.00;100150.63;4955768;29;20104;-76
2023/03/26 03:41:10;;;;;;;32.17;4.32;;;;;;;7.61;100.00;100149.59;4958047;29;20027;-77
2023/03/26 03:43:35;;;;;;;39.13;4.13;;;;;;;7.60;100.00;100139.72;4912529;29;20083;-76
2023/03/26 03:46:04;;;;;;;43.88;5.18;;;;;;;7.65;100.00;100143.81;4959516;29;20031;-77
2023/03/26 03:48:30;;;;;;;37.65;4.10;;;;;;;7.66;100.00;100137.38;4898747;29;20050;-77
2023/03/26 03:50:55;;;;;;;25.20;3.42;;;;;;;7.63;100.00;100139.47;4934885;29;20473;-76
2023/03/26 03:53:24;;;;;;;28.92;3.25;;;;;;;7.68;100.00;100137.25;4914112;29;20028;-77
2023/03/26 03:55:53;;;;;;;33.92;3.53;;;;;;;7.63;100.00;100120.41;4947978;29;20036;-76
2023/03/26 03:58:20;;;;;;;36.53;4.50;;;;;;;7.70;100.00;100119.78;4974166;28;20050;-78
2023/03/26 04:00:50;;;;;;;25.08;3.35;;;;;;;7.69;100.00;100128.06;4941442;29;20106;-76
2023/03/26 04:03:16;;;;;;;37.60;3.75;;;;;;;7.66;100.00;100115.56;4940324;29;20067;-76
2023/03/26 04:05:48;;;;;;;24.85;3.47;;;;;;;7.61;100.00;100098.72;4957868;29;20057;-76
2023/03/26 04:08:15;;;;;;;46.63;4.40;;;;;;;7.66;100.00;100115.56;4922129;29;20046;-77
2023/03/26 04:10:42;;;;;;;41.00;3.85;;;;;;;7.69;100.00;100115.34;4929799;29;20063;-77
2023/03/26 04:13:08;;;;;;;34.05;3.55;;;;;;;7.68;100.00;100115.47;4925867;29;20023;-76
2023/03/26 04:15:34;;;;;;;44.72;3.97;;;;;;;7.71;100.00;100112.50;4925261;28;20034;-76
2023/03/26 04:18:03;;;;;;;35.83;3.42;;;;;;;7.69;100.00;100101.72;4966829;28;20402;-77
2023/03/26 04:20:28;;;;;;;31.70;3.25;;;;;;;7.72;100.00;100103.31;4922537;29;20403;-77
2023/03/26 04:22:53;;;;;;;20.10;2.78;;;;;;;7.84;100.00;100098.78;4915070;28;20047;-76
2023/03/26 04:25:20;;;;;;;32.50;3.63;;;;;;;7.76;100.00;100082.16;4958055;29;20170;-76
2023/03/26 04:27:47;;;;;;;38.08;4.13;;;;;;;7.76;100.00;100080.28;4956307;29;20133;-76
2023/03/26 04:30:18;;;;;;;31.63;3.55;;;;;;;7.76;100.00;100083.03;4923898;29;20143;-76
2023/03/26 04:32:45;;;;;;;40.15;4.55;;;;;;;7.78;100.00;100082.91;4940850;29;20062;-76
2023/03/26 04:35:15;;;;;;;33.10;3.58;;;;;;;7.85;100.00;100081.41;4921658;29;20045;-77
2023/03/26 04:37:43;;;;;;;36.75;3.33;;;;;;;7.93;100.00;100083.53;4941540;29;20043;-76
2023/03/26 04:40:19;;;;;;;28.38;3.60;;;;;;;7.97;100.00;100065.91;4939862;29;20129;-76
2023/03/26 04:42:45;;;;;;;42.80;4.30;;;;;;;8.07;100.00;100059.59;4940244;29;20045;-76
2023/03/26 04:45:12;;;;;;;27.75;3.70;;;;;;;8.07;100.00;100061.47;4925437;29;20125;-76
2023/03/26 04:47:38;;;;;;;29.73;4.35;;;;;;;7.94;100.00;100052.56;4939629;29;20035;-76
2023/03/26 04:50:08;;;;;;;48.85;6.47;;;;;;;8.05;100.00;100055.25;4932249;29;20054;-77
2023/03/26 04:52:34;;;;;;;30.73;4.05;;;;;;;7.89;100.00;100050.19;4936517;29;20392;-76
2023/03/26 04:55:02;;;;;;;27.00;3.33;;;;;;;8.01;100.00;100045.59;4952628;29;20035;-76
2023/03/26 04:57:34;;;;;;;36.25;4.53;;;;;;;8.04;100.00;100043.50;4940777;29;20090;-76
2023/03/26 05:00:13;;;;;;;35.42;3.95;;;;;;;7.89;100.00;100040.16;4935861;29;20071;-76
2023/03/26 05:02:40;;;;;;;55.88;7.18;;;;;;;7.85;100.00;100032.34;4953137;28;20390;-76
2023/03/26 05:05:06;;;;;;;58.20;12.02;;;;;;;7.92;100.00;100028.16;4937958;29;20051;-77
2023/03/26 05:07:32;;;;;;;27.60;3.55;;;;;;;8.03;100.00;100022.66;4905357;29;20128;-76
2023/03/26 05:09:57;;;;;;;30.23;3.90;;;;;;;7.99;100.00;100028.53;4922288;29;20432;-76
2023/03/26 05:12:23;;;;;;;37.13;4.13;;;;;;;7.94;100.00;100022.59;4952172;29;20024;-76
2023/03/26 05:14:48;;;;;;;42.47;5.03;;;;;;;7.86;100.00;100012.28;4953727;29;20045;-78
2023/03/26 05:17:17;;;;;;;31.95;4.47;;;;;;;7.89;100.00;100017.50;4933920;29;20043;-76
2023/03/26 05:19:43;;;;;;;32.85;4.35;;;;;;;7.99;100.00;100018.47;4939869;29;20035;-77
2023/03/26 05:22:09;;;;;;;47.85;5.40;;;;;;;8.01;100.00;100010.16;4955497;29;20035;-76
2023/03/26 05:24:34;;;;;;;29.27;4.88;;;;;;;7.93;100.00;100008.06;4940213;28;20146;-77
2023/03/26 05:27:03;;;;;;;43.20;5.93;;;;;;;7.87;100.00;100003.09;4932112;29;20091;-76
2023/03/26 05:29:28;;;;;;;30.27;4.13;;;;;;;7.96;100.00;99998.78;4924243;29;20040;-76
2023/03/26 05:31:54;;;;;;;24.10;3.50;;;;;;;8.00;100.00;99992.97;4919243;29;20062;-77
2023/03/26 05:34:22;;;;;;;33.63;5.00;;;;;;;8.10;100.00;99984.88;4957046;29;20046;-77
2023/03/26 05:36:49;;;;;;;31.67;4.90;;;;;;;8.09;100.00;99975.81;4956264;29;20046;-76
2023/03/26 05:39:14;;;;;;;40.38;4.80;;;;;;;7.98;100.00;99966.81;4938794;29;20051;-76
2023/03/26 05:41:40;;;;;;;35.92;4.85;;;;;;;8.10;100.00;99968.53;4953449;29;20035;-77
2023/03/26 05:44:05;;;;;;;35.65;5.28;;;;;;;8.14;100.00;99967.25;4942522;29;20075;-77
2023/03/26 05:46:31;;;;;;;30.20;4.68;;;;;;;7.90;100.00;99951.06;4931315;29;20044;-76
2023/03/26 05:48:56;;;;;;;39.00;4.93;;;;;;;7.93;100.00;99958.16;4946676;29;20039;-76
2023/03/26 05:51:22;;;;;;;27.70;5.13;;;;;;;7.98;100.00;99948.59;4938728;29;20040;-77
2023/03/26 05:53:48;;;;;;;34.10;4.45;;;;;;;7.94;100.00;99952.56;4961244;29;20041;-77
2023/03/26 05:56:13;;;;;;;24.17;4.72;;;;;;;7.86;100.00;99953.19;4954401;29;20067;-77
2023/03/26 05:58:40;;;;;;;37.55;5.55;;;;;;;8.00;100.00;99941.16;4926725;29;20243;-77
2023/03/26 06:01:15;;;;;;;22.90;3.75;;;;;;;8.01;100.00;99948.31;4926371;29;20046;-77
2023/03/26 06:03:45;;;;;;;40.95;4.82;;;;;;;8.08;100.00;99944.13;4928605;29;20041;-77
2023/03/26 06:06:17;;;;;;;35.00;4.65;;;;;;;8.05;100.00;99938.03;4959968;29;20047;-77
2023/03/26 06:08:48;;;;;;;35.35;4.43;;;;;;;8.06;100.00;99935.19;4942788;29;20047;-76
2023/03/26 06:11:14;;;;;;;36.38;4.40;;;;;;;7.98;100.00;99920.47;4956766;29;20027;-77
2023/03/26 06:13:41;;;;;;;37.50;4.68;;;;;;;8.00;100.00;99919.34;4963216;29;20031;-76
2023/03/26 06:16:11;;;;;;;31.80;5.63;;;;;;;8.02;100.00;99927.41;4930616;29;20039;-76
2023/03/26 06:18:38;;;;;;;36.33;5.15;;;;;;;8.05;100.00;99910.78;4948501;29;22081;-75
2023/03/26 06:21:04;;;;;;;34.03;5.30;;;;;;;8.06;100.00;99918.81;4954611;29;20086;-75
2023/03/26 06:23:30;;;;;;;47.10;5.00;;;;;;;7.99;100.00;99911.31;4912223;29;20491;-76
2023/03/26 06:25:56;;;;;;;44.70;4.78;;;;;;;7.88;100.00;99898.56;4939354;29;20052;-76
2023/03/26 06:28:22;;;;;;;32.80;5.47;;;;;;;8.00;100.00;99907.56;4965158;29;20035;-77
2023/03/26 06:30:48;;;;;;;32.38;4.63;;;;;;;7.98;100.00;99909.56;4947945;29;20087;-77
2023/03/26 06:33:13;;;;;;;40.17;4.93;;;;;;;7.94;100.00;99914.41;4937254;29;20019;-76
2023/03/26 06:35:39;;;;;;;47.30;4.88;;;;;;;7.97;100.00;99910.53;4959386;29;20042;-76
2023/03/26 06:38:06;;;;;;;30.85;4.53;;;;;;;7.73;100.00;99917.91;4959364;29;20094;-76
2023/03/26 06:40:32;;;;;;;38.10;4.38;;;;;;;7.76;100.00;99907.78;4911184;29;20043;-76
2023/03/26 06:42:59;;;;;;;26.52;3.78;;;;;;;7.72;100.00;99910.75;4950140;29;20537;-75
2023/03/26 06:45:26;;;;;;;37.08;4.97;;;;;;;7.72;100.00;99904.41;4943170;29;20175;-75
2023/03/26 06:47:51;;;;;;;29.75;3.38;;;;;;;7.67;100.00;99901.22;4942358;29;20031;-76
2023/03/26 06:50:17;;;;;;;26.73;3.47;;;;;;;7.75;100.00;99908.75;4925120;29;20136;-75
2023/03/26 06:52:42;;;;;;;21.17;3.47;;;;;;;7.72;100.00;99909.88;4958698;29;20094;-76
2023/03/26 06:55:09;;;;;;;41.72;4.70;;;;;;;7.65;100.00;99914.09;4958475;29;20071;-75
2023/03/26 06:57:35;;;;;;;20.48;3.22;;;;;;;7.63;100.00;99913.38;4940015;29;20035;-75
2023/03/26 07:00:01;;;;;;;31.15;3.90;;;;;;;7.60;100.00;99905.44;4931011;29;20047;-75
2023/03/26 07:02:29;;;;;;;38.63;4.45;;;;;;;7.61;100.00;99899.88;4938085;29;20043;-75
2023/03/26 07:04:54;;;;;;;30.38;4.00;;;;;;;7.57;100.00;99898.38;4920899;29;20098;-75
2023/03/26 07:07:22;;;;;;;36.70;4.70;;;;;;;7.59;100.00;99900.97;4939068;29;20204;-75
2023/03/26 07:09:48;;;;;;;35.67;4.32;;;;;;;7.62;100.00;99904.31;4952349;29;20042;-75
2023/03/26 07:12:14;;;;;;;28.25;3.72;;;;;;;7.63;100.00;99910.63;4956941;28;20031;-75
2023/03/26 07:14:39;;;;;;;31.50;4.70;;;;;;;7.65;100.00;99892.31;4940962;29;20132;-76
2023/03/26 07:17:05;;;;;;;34.92;4.00;;;;;;;7.69;100.00;99894.66;4922633;29;20063;-75
2023/03/26 07:19:30;;;;;;;31.73;3.92;;;;;;;7.68;100.00;99900.22;4936630;29;20126;-75
2023/03/26 07:21:56;;;;;;;37.22;3.97;;;;;;;7.69;100.00;99891.03;4935544;29;20107;-75
2023/03/26 07:24:22;;;;;;;39.80;4.22;;;;;;;7.80;100.00;99892.88;4940846;28;20059;-75
2023/03/26 07:27:02;;;;;;;45.28;4.43;;;;;;;7.84;100.00;99889.78;4934660;29;20736;-76
2023/03/26 07:29:40;;;;;;;22.50;2.97;;;;;;;7.82;100.00;99891.78;4947690;28;20395;-74
2023/03/26 07:32:15;;;;;;;40.42;3.95;;;;;;;7.82;100.00;99882.72;4947632;29;20526;-76
2023/03/26 07:34:51;;;;;;;38.90;4.18;;;;;;;7.85;100.00;99882.47;4929482;28;20035;-76
2023/03/26 07:37:30;;;;;;;44.47;4.60;;;;;;;7.94;100.00;99875.41;4955667;29;20483;-75
2023/03/26 07:40:01;;;;;;;33.53;4.32;;;;;;;8.10;100.00;99882.13;4940024;29;20402;-76
2023/03/26 07:42:50;;;;;;;30.98;4.13;;;;;;;8.11;100.00;99877.53;4957219;29;20039;-76
2023/03/26 07:45:28;;;;;;;32.60;3.03;;;;;;;8.04;100.00;99874.47;4955095;29;20046;-76
2023/03/26 07:47:55;;;;;;;27.75;4.00;;;;;;;7.90;100.00;99870.19;4938531;29;20070;-76
2023/03/26 07:50:22;;;;;;;37.30;3.60;;;;;;;8.00;100.00;99872.13;4951871;29;20045;-76
2023/03/26 07:52:48;;;;;;;31.77;3.50;;;;;;;8.03;100.00;99871.88;4925543;29;20035;-76
2023/03/26 07:55:15;;;;;;;37.80;4.70;;;;;;;8.07;100.00;99878.81;4957360;29;20097;-76
2023/03/26 07:57:59;;;;;;;30.08;3.95;;;;;;;8.00;100.00;99875.75;4935618;29;20039;-76
2023/03/26 08:00:41;;;;;;;32.42;4.90;;;;;;;7.85;100.00;99858.78;4949700;29;20110;-76
2023/03/26 08:03:26;;;;;;;31.58;4.65;;;;;;;8.04;100.00;99860.00;4948449;28;20458;-77
2023/03/26 08:06:02;;;;;;;28.30;3.78;;;;;;;8.12;100.00;99865.66;4946120;28;20043;-77
2023/03/26 08:08:55;;;;;;;29.13;3.78;;;;;;;8.06;100.00;99858.84;4948292;29;20483;-77
2023/03/26 08:11:55;;;;;;;35.15;3.80;;;;;;;8.03;100.00;99860.97;4946890;29;20380;-79
2023/03/26 08:14:33;;;;;;;23.15;3.30;;;;;;;8.10;100.00;99859.47;4938376;29;20042;-77
2023/03/26 08:17:08;;;;;;;28.00;4.25;;;;;;;8.19;100.00;99850.50;4933407;29;20110;-77
2023/03/26 08:19:47;;;;;;;42.35;5.63;;;;;;;8.20;100.00;99854.06;4946179;29;20035;-77
2023/03/26 08:22:26;;;;;;;40.38;7.60;;;;;;;8.24;100.00;99850.97;4951492;29;20082;-77
2023/03/26 08:25:16;;;;;;;48.97;8.63;;;;;;;8.24;100.00;99856.41;4949787;28;20047;-78
2023/03/26 08:28:04;;;;;;;36.67;8.23;;;;;;;8.29;100.00;99845.13;4951157;28;20035;-77
2023/03/26 08:30:30;;;;;;;31.83;7.97;;;;;;;8.00;100.00;99848.47;4946834;29;20042;-77
2023/03/26 08:33:10;;;;;;;28.30;7.50;;;;;;;8.25;100.00;99847.25;4930869;29;21722;-78
2023/03/26 08:35:41;;;;;;;31.05;8.20;;;;;;;8.34;100.00;99842.84;4932658;29;20035;-77
2023/03/26 08:38:07;;;;;;;41.35;6.65;;;;;;;8.45;100.00;99845.56;4935306;29;20039;-77
2023/03/26 08:41:10;;;;;;;39.60;6.90;;;;;;;8.52;100.00;99837.69;4929824;29;20031;-75
2023/03/26 08:43:47;;;;;;;33.10;6.43;;;;;;;8.44;100.00;99849.28;4932236;29;20046;-77
2023/03/26 08:46:13;;;;;;;38.47;8.02;;;;;;;8.46;100.00;99854.59;4932366;29;20035;-77
2023/03/26 08:49:21;;;;;;;57.25;8.77;;;;;;;8.35;100.00;99841.88;4934615;29;20039;-76
2023/03/26 08:52:18;;;;;;;41.35;9.52;;;;;;;8.37;100.00;99837.13;4942099;29;20058;-75
2023/03/26 08:54:53;;;;;;;39.58;9.75;;;;;;;8.46;100.00;99840.94;4918211;29;20039;-75
2023/03/26 08:57:47;;;;;;;38.45;7.50;;;;;;;8.43;100.00;99835.78;4918734;29;21641;-77
2023/03/26 09:00:31;;;;;;;38.28;5.85;;;;;;;8.48;100.00;99841.69;4923839;29;20073;-77
2023/03/26 09:03:15;;;;;;;33.95;4.55;;;;;;;8.42;100.00;99840.31;4952538;29;20039;-77
2023/03/26 09:06:23;;;;;;;33.28;5.80;;;;;;;8.35;100.00;99835.56;4955027;29;20046;-78
2023/03/26 09:09:07;;;;;;;44.38;5.70;;;;;;;8.39;100.00;99837.00;4933672;29;20047;-77
2023/03/26 09:11:54;;;;;;;46.00;8.07;;;;;;;8.33;100.00;99837.53;4921322;29;20101;-78
2023/03/26 09:14:46;;;;;;;37.70;6.57;;;;;;;8.36;100.00;99834.53;4937341;29;20491;-79
2023/03/26 09:17:56;;;;;;;28.27;7.40;;;;;;;8.31;100.00;99836.81;4947224;28;20396;-78
2023/03/26 09:20:47;;;;;;;33.47;6.50;;;;;;;8.23;100.00;99832.88;4898394;29;20507;-78
2023/03/26 09:23:58;;;;;;;30.13;6.32;;;;;;;8.27;100.00;99831.59;4953030;28;20129;-77
2023/03/26 09:26:49;;;;;;;36.90;7.65;;;;;;;8.15;100.00;99829.06;4954463;29;20035;-77
2023/03/26 09:29:40;;;;;;;38.00;7.22;;;;;;;8.35;100.00;99832.81;4952648;29;20046;-80
2023/03/26 09:32:17;;;;;;;31.50;7.75;;;;;;;8.23;100.00;99826.53;4947779;28;20027;-78
2023/03/26 09:35:05;;;;;;;35.55;7.50;;;;;;;8.16;100.00;99822.63;4959736;28;20035;-78
2023/03/26 09:37:45;;;;;;;37.38;7.72;;;;;;;8.07;100.00;99829.75;4913053;29;20514;-77
2023/03/26 09:40:16;;;;;;;35.95;7.63;;;;;;;8.11;100.00;99825.75;4952763;29;20042;-77
2023/03/26 09:42:47;;;;;;;46.60;9.15;;;;;;;8.10;100.00;99827.63;4921331;29;20446;-80
2023/03/26 09:45:25;;;;;;;36.20;8.77;;;;;;;8.07;100.00;99827.00;4933016;29;20648;-78
2023/03/26 09:48:19;;;;;;;49.95;8.85;;;;;;;8.22;100.00;99819.38;4927531;29;20068;-79
2023/03/26 09:51:04;;;;;;;28.17;7.70;;;;;;;8.03;100.00;99823.66;4932928;29;20042;-79
2023/03/26 09:53:49;;;;;;;35.60;9.75;;;;;;;8.19;100.00;99825.94;4937629;29;20038;-78
2023/03/26 09:56:22;;;;;;;25.27;8.15;;;;;;;8.10;100.00;99833.06;4940485;29;20439;-79
2023/03/26 09:59:14;;;;;;;41.38;9.82;;;;;;;8.14;100.00;99819.19;4935957;29;20038;-78
2023/03/26 10:02:17;;;;;;;40.42;9.40;;;;;;;8.16;100.00;99818.03;4932471;29;20039;-82
2023/03/26 10:05:00;;;;;;;30.60;8.45;;;;;;;8.16;100.00;99826.22;4952709;29;20093;-82
2023/03/26 10:07:52;;;;;;;29.17;7.53;;;;;;;7.97;100.00;99820.59;4951206;29;20058;-78
2023/03/26 10:10:57;;;;;;;38.78;6.47;;;;;;;7.86;100.00;99822.38;4943159;29;20040;-81
2023/03/26 10:13:27;;;;;;;36.65;6.13;;;;;;;8.02;100.00;99818.38;4892239;29;20042;-81
2023/03/26 10:16:14;;;;;;;23.20;6.43;;;;;;;8.09;100.00;99820.41;4935051;29;20095;-80
2023/03/26 10:18:50;;;;;;;33.45;7.38;;;;;;;8.24;100.00;99812.78;4938962;29;20027;-79
2023/03/26 10:21:34;;;;;;;38.38;8.60;;;;;;;8.24;100.00;99822.84;4939939;29;20035;-80
2023/03/26 10:24:23;;;;;;;35.25;8.27;;;;;;;8.30;100.00;99816.84;4939864;28;20040;-79
2023/03/26 10:27:13;;;;;;;34.85;7.15;;;;;;;8.22;100.00;99814.78;4955502;28;20039;-79
2023/03/26 10:30:17;;;;;;;31.73;7.68;;;;;;;8.08;100.00;99821.44;4937448;29;20043;-79
2023/03/26 10:33:19;;;;;;;32.83;8.65;;;;;;;8.19;100.00;99823.22;4933073;29;20057;-78
2023/03/26 10:35:48;;;;;;;38.00;8.48;;;;;;;8.03;100.00;99825.53;4928728;29;20059;-79
2023/03/26 10:39:16;;;;;;;40.60;8.20;;;;;;;8.12;100.00;99827.47;4941015;29;20421;-80
2023/03/26 10:42:00;;;;;;;25.25;6.75;;;;;;;8.05;100.00;99820.81;4881798;29;20064;-79
2023/03/26 10:44:46;;;;;;;29.77;6.63;;;;;;;7.98;100.00;99825.91;4939181;29;20039;-79
2023/03/26 10:47:43;;;;;;;29.48;5.90;;;;;;;7.94;100.00;99829.91;4907905;29;20098;-80
2023/03/26 10:50:30;;;;;;;45.72;7.97;;;;;;;8.07;100.00;99830.59;4940661;29;20031;-79
2023/03/26 10:53:37;;;;;;;43.33;8.63;;;;;;;8.14;100.00;99821.91;4946622;29;20031;-79
2023/03/26 10:56:17;;;;;;;40.47;8.93;;;;;;;8.05;100.00;99828.97;4952806;29;20149;-78
2023/03/26 10:58:46;;;;;;;28.50;7.75;;;;;;;7.92;100.00;99837.38;4937504;29;20113;-79
2023/03/26 11:01:44;;;;;;;22.92;8.15;;;;;;;8.29;100.00;99828.75;4941668;29;20062;-80
2023/03/26 11:04:42;;;;;;;32.38;9.50;;;;;;;8.57;100.00;99832.69;4959578;29;20105;-80
2023/03/26 11:07:35;;;;;;;28.08;8.65;;;;;;;8.59;100.00;99825.28;4925106;29;20034;-80
2023/03/26 11:10:04;;;;;;;20.90;8.13;;;;;;;8.73;100.00;99836.84;4960022;29;20047;-80
2023/03/26 11:12:54;;;;;;;33.33;9.23;;;;;;;8.82;100.00;99838.72;4943029;29;20051;-80
2023/03/26 11:15:34;;;;;;;25.45;8.35;;;;;;;8.59;100.00;99833.44;4943774;29;20439;-80
2023/03/26 11:18:19;;;;;;;24.65;7.88;;;;;;;8.74;100.00;99830.34;4943670;29;20027;-80
2023/03/26 11:20:52;;;;;;;18.85;7.30;;;;;;;8.65;100.00;99845.69;4960170;29;20039;-80
2023/03/26 11:23:48;;;;;;;27.85;8.18;;;;;;;8.48;100.00;99847.16;4942211;29;20031;-80
2023/03/26 11:26:18;;;;;;;25.35;5.57;;;;;;;8.33;100.00;99843.88;4920566;29;20123;-80
2023/03/26 11:29:06;;;;;;;17.33;2.75;;;;;;;8.13;100.00;99852.88;4890124;29;20067;-79
2023/03/26 11:31:58;;;;;;;8.93;2.35;;;;;;;8.12;100.00;99845.69;4923514;29;20036;-80
2023/03/26 11:34:33;;;;;;;16.67;3.83;;;;;;;8.14;100.00;99852.75;4904341;29;20036;-81
2023/03/26 11:37:04;;;;;;;7.35;1.90;;;;;;;8.07;100.00;99854.28;4931465;29;20036;-81
2023/03/26 11:40:03;;;;;;;12.48;2.30;;;;;;;8.13;100.00;99842.81;4914525;29;20094;-80
2023/03/26 11:42:29;;;;;;;13.63;2.90;;;;;;;8.21;100.00;99855.81;4929493;29;20454;-81
2023/03/26 11:45:02;;;;;;;20.60;3.58;;;;;;;8.26;100.00;99853.56;4895554;29;20392;-81
2023/03/26 11:47:45;;;;;;;;;;;;;;;8.42;100.00;99850.38;4923376;29;20034;-81
2023/03/26 11:50:33;;;;;;;6.63;3.13;;;;;;;8.01;100.00;99857.50;4907816;29;19965;-79
2023/03/26 11:53:10;;;;;;;10.00;2.72;;;;;;;7.97;100.00;99859.66;4928057;29;20122;-81